createdAt,value
2023-03-06T00:02:13.240Z,1.10
2023-03-06T00:04:41.629Z,1.60
2023-03-06T00:07:09.993Z,1.60
2023-03-06T00:09:38.360Z,0.90
2023-03-06T00:12:06.882Z,1.33
2023-03-06T00:14:35.270Z,7.33
2023-03-06T00:17:04.064Z,3.90
2023-03-06T00:19:33.756Z,1.60
2023-03-06T00:22:03.293Z,1.00
2023-03-06T00:24:31.652Z,0.90
2023-03-06T00:26:59.956Z,1.10
2023-03-06T00:29:28.521Z,8.93
2023-03-06T00:31:56.966Z,0.90
2023-03-06T00:34:25.982Z,1.30
2023-03-06T00:36:55.837Z,1.63
2023-03-06T00:39:24.365Z,0.90
2023-03-06T00:41:52.766Z,1.50
2023-03-06T00:44:23.656Z,0.90
2023-03-06T00:46:52.028Z,0.90
2023-03-06T00:49:20.422Z,1.67
2023-03-06T00:51:48.952Z,1.00
2023-03-06T00:54:18.667Z,1.63
2023-03-06T00:56:47.032Z,1.17
2023-03-06T00:59:15.474Z,2.90
2023-03-06T01:01:43.807Z,1.70
2023-03-06T01:04:12.154Z,2.17
2023-03-06T01:06:40.568Z,1.17
2023-03-06T01:09:08.994Z,2.10
2023-03-06T01:11:38.707Z,3.60
2023-03-06T01:14:07.202Z,1.37
2023-03-06T01:16:35.663Z,1.40
2023-03-06T01:19:04.046Z,2.10
2023-03-06T01:21:32.443Z,1.30
2023-03-06T01:24:00.756Z,1.20
2023-03-06T01:26:29.112Z,1.20
2023-03-06T01:28:59.141Z,3.53
2023-03-06T01:31:27.759Z,4.10
2023-03-06T01:33:56.204Z,1.70
2023-03-06T01:36:24.666Z,1.30
2023-03-06T01:38:53.128Z,1.27
2023-03-06T01:41:21.594Z,0.90
2023-03-06T01:43:50.002Z,1.40
2023-03-06T01:46:42.982Z,1.10
2023-03-06T01:49:17.981Z,1.23
2023-03-06T01:51:48.608Z,2.77
2023-03-06T01:54:18.066Z,1.53
2023-03-06T01:56:48.262Z,2.23
2023-03-06T01:59:16.692Z,4.53
2023-03-06T02:01:45.587Z,1.67
2023-03-06T02:04:15.518Z,1.87
2023-03-06T02:06:44.298Z,1.10
2023-03-06T02:09:13.556Z,2.07
2023-03-06T02:11:44.098Z,1.30
2023-03-06T02:14:14.018Z,1.47
2023-03-06T02:16:43.349Z,2.27
2023-03-06T02:19:16.962Z,1.60
2023-03-06T02:21:46.651Z,2.60
2023-03-06T02:24:20.922Z,1.90
2023-03-06T02:26:51.206Z,3.80
2023-03-06T02:29:22.165Z,3.03
2023-03-06T02:31:50.644Z,2.97
2023-03-06T02:34:37.637Z,2.10
2023-03-06T02:37:08.863Z,1.20
2023-03-06T02:39:39.930Z,1.13
2023-03-06T02:42:09.849Z,1.53
2023-03-06T02:44:38.411Z,1.60
2023-03-06T02:47:07.824Z,1.30
2023-03-06T02:49:36.225Z,4.67
2023-03-06T02:52:04.588Z,2.40
2023-03-06T02:54:32.928Z,1.07
2023-03-06T02:57:01.253Z,2.00
2023-03-06T02:59:30.980Z,10.17
2023-03-06T03:01:59.295Z,1.63
2023-03-06T03:04:27.764Z,1.03
2023-03-06T03:06:56.143Z,1.20
2023-03-06T03:09:24.513Z,1.10
2023-03-06T03:11:52.853Z,0.93
2023-03-06T03:14:21.265Z,3.03
2023-03-06T03:16:51.112Z,1.77
2023-03-06T03:19:19.474Z,1.00
2023-03-06T03:21:47.806Z,0.90
2023-03-06T03:24:16.699Z,3.03
2023-03-06T03:26:45.224Z,0.97
2023-03-06T03:29:13.523Z,2.87
2023-03-06T03:31:41.902Z,5.10
2023-03-06T03:34:11.916Z,1.13
2023-03-06T03:36:40.374Z,1.33
2023-03-06T03:39:08.971Z,1.00
2023-03-06T03:41:37.465Z,0.90
2023-03-06T03:44:05.907Z,0.90
2023-03-06T03:46:34.301Z,1.47
2023-03-06T03:49:02.651Z,4.47
2023-03-06T03:51:32.456Z,0.80
2023-03-06T03:54:00.972Z,1.17
2023-03-06T03:56:29.299Z,1.10
2023-03-06T03:59:00.255Z,2.53
2023-03-06T04:01:29.186Z,1.27
2023-03-06T04:03:57.524Z,1.10
2023-03-06T04:06:25.886Z,1.20
2023-03-06T04:08:55.572Z,1.27
2023-03-06T04:11:23.924Z,0.90
2023-03-06T04:13:52.372Z,1.00
2023-03-06T04:16:20.762Z,1.00
2023-03-06T04:18:52.215Z,1.60
2023-03-06T04:21:20.767Z,1.20
2023-03-06T04:23:49.211Z,1.10
2023-03-06T04:26:18.920Z,1.33
2023-03-06T04:28:47.278Z,0.90
2023-03-06T04:31:15.708Z,1.03
2023-03-06T04:33:44.067Z,1.00
2023-03-06T04:36:16.114Z,1.00
2023-03-06T04:38:44.479Z,1.90
2023-03-06T04:41:12.883Z,0.90
2023-03-06T04:43:42.709Z,0.90
2023-03-06T04:46:14.610Z,1.20
2023-03-06T04:48:42.962Z,1.00
2023-03-06T04:51:12.175Z,1.10
2023-03-06T04:53:40.589Z,2.03
2023-03-06T04:56:09.263Z,1.13
2023-03-06T04:58:37.954Z,0.90
2023-03-06T05:01:07.888Z,0.80
2023-03-06T05:03:36.499Z,0.90
2023-03-06T05:06:04.954Z,1.03
2023-03-06T05:08:33.757Z,1.07
2023-03-06T05:11:03.640Z,0.90
2023-03-06T05:13:32.349Z,2.07
2023-03-06T05:16:03.546Z,1.33
2023-03-06T05:18:33.666Z,1.07
2023-03-06T05:21:02.044Z,0.80
2023-03-06T05:23:31.063Z,1.23
2023-03-06T05:25:59.758Z,1.47
2023-03-06T05:28:28.705Z,1.00
2023-03-06T05:30:57.159Z,1.10
2023-03-06T05:33:26.554Z,1.33
2023-03-06T05:35:56.395Z,1.20
2023-03-06T05:38:24.950Z,1.10
2023-03-06T05:40:53.828Z,0.90
2023-03-06T05:43:22.343Z,0.90
2023-03-06T05:45:53.205Z,0.90
2023-03-06T05:48:21.601Z,0.90
2023-03-06T05:50:57.820Z,0.97
2023-03-06T05:53:26.842Z,0.80
2023-03-06T05:55:58.776Z,0.90
2023-03-06T05:58:27.290Z,0.90
2023-03-06T06:00:55.785Z,0.80
2023-03-06T06:03:24.882Z,2.00
2023-03-06T06:05:53.548Z,0.97
2023-03-06T06:08:23.320Z,1.70
2023-03-06T06:10:53.457Z,0.90
2023-03-06T06:13:22.020Z,1.20
2023-03-06T06:15:50.536Z,0.90
2023-03-06T06:18:19.051Z,0.90
2023-03-06T06:20:47.461Z,1.20
2023-03-06T06:23:15.826Z,1.20
2023-03-06T06:25:45.645Z,1.20
2023-03-06T06:28:13.984Z,0.80
2023-03-06T06:30:42.608Z,1.10
2023-03-06T06:33:11.193Z,2.00
2023-03-06T06:35:39.672Z,0.90
2023-03-06T06:38:08.040Z,0.90
2023-03-06T06:40:36.910Z,0.80
2023-03-06T06:43:06.626Z,2.00
2023-03-06T06:45:35.068Z,0.80
2023-03-06T06:48:04.249Z,1.00
2023-03-06T06:50:32.669Z,0.90
2023-03-06T06:53:01.113Z,0.90
2023-03-06T06:55:29.549Z,1.00
2023-03-06T06:57:57.904Z,1.30
2023-03-06T07:00:28.007Z,0.87
2023-03-06T07:02:56.468Z,1.77
2023-03-06T07:05:24.899Z,9.00
2023-03-06T07:07:53.565Z,2.00
2023-03-06T07:10:22.144Z,0.90
2023-03-06T07:12:50.613Z,1.27
2023-03-06T07:15:19.272Z,0.90
2023-03-06T07:17:50.289Z,0.80
2023-03-06T07:20:19.187Z,1.00
2023-03-06T07:22:51.228Z,0.80
2023-03-06T07:25:20.818Z,1.03
2023-03-06T07:27:53.644Z,1.13
2023-03-06T07:30:22.806Z,1.57
2023-03-06T07:32:55.118Z,0.80
2023-03-06T07:35:24.108Z,0.80
2023-03-06T07:37:52.623Z,0.80
2023-03-06T07:40:22.744Z,0.80
2023-03-06T07:42:51.113Z,0.73
2023-03-06T07:45:19.645Z,0.80
2023-03-06T07:47:48.018Z,0.80
2023-03-06T07:50:17.822Z,1.00
2023-03-06T07:52:46.332Z,0.80
2023-03-06T07:55:15.086Z,1.00
2023-03-06T07:57:43.488Z,0.77
2023-03-06T08:00:13.961Z,1.00
2023-03-06T08:02:44.200Z,0.80
2023-03-06T08:05:15.151Z,0.80
2023-03-06T08:07:46.221Z,0.80
2023-03-06T08:10:15.621Z,0.80
2023-03-06T08:12:44.142Z,0.80
2023-03-06T08:15:16.504Z,0.70
2023-03-06T08:17:44.933Z,0.80
2023-03-06T08:20:14.562Z,0.60
2023-03-06T08:22:43.091Z,0.90
2023-03-06T08:25:14.401Z,2.07
2023-03-06T08:27:43.398Z,1.77
2023-03-06T08:30:12.431Z,0.90
2023-03-06T08:32:40.940Z,1.27
2023-03-06T08:35:09.701Z,2.10
2023-03-06T08:37:38.270Z,0.97
2023-03-06T08:40:08.283Z,0.80
2023-03-06T08:42:38.159Z,1.10
2023-03-06T08:45:07.273Z,1.33
2023-03-06T08:47:36.640Z,1.47
2023-03-06T08:50:10.598Z,0.90
2023-03-06T08:52:38.926Z,0.80
2023-03-06T08:55:07.788Z,0.80
2023-03-06T08:57:36.855Z,1.00
2023-03-06T09:00:08.875Z,0.90
2023-03-06T09:02:37.350Z,0.80
2023-03-06T09:05:07.418Z,0.80
2023-03-06T09:07:39.049Z,1.03
2023-03-06T09:10:08.463Z,0.80
2023-03-06T09:12:49.834Z,1.17
2023-03-06T09:15:21.811Z,0.70
2023-03-06T09:17:50.892Z,0.73
2023-03-06T09:20:19.829Z,1.83
2023-03-06T09:22:48.564Z,0.70
2023-03-06T09:25:21.886Z,0.70
2023-03-06T09:28:01.736Z,0.70
2023-03-06T09:30:38.908Z,1.07
2023-03-06T09:33:07.403Z,0.70
2023-03-06T09:35:35.877Z,0.70
2023-03-06T09:38:04.346Z,0.80
2023-03-06T09:40:40.962Z,0.70
2023-03-06T09:43:11.354Z,0.70
2023-03-06T09:45:42.366Z,0.73
2023-03-06T09:48:15.453Z,0.70
2023-03-06T09:50:46.260Z,1.47
2023-03-06T09:53:24.079Z,0.87
2023-03-06T09:56:02.050Z,0.90
2023-03-06T09:58:31.934Z,3.07
2023-03-06T10:01:03.500Z,0.80
2023-03-06T10:03:36.589Z,1.13
2023-03-06T10:06:09.583Z,1.40
2023-03-06T10:08:45.315Z,1.63
2023-03-06T10:11:15.184Z,0.87
2023-03-06T10:13:47.107Z,1.53
2023-03-06T10:16:24.546Z,1.63
2023-03-06T10:18:56.389Z,1.50
2023-03-06T10:21:39.690Z,5.23
2023-03-06T10:24:15.291Z,1.63
2023-03-06T10:26:51.433Z,0.70
2023-03-06T10:29:29.954Z,0.80
2023-03-06T10:32:02.127Z,3.03
2023-03-06T10:34:32.776Z,1.67
2023-03-06T10:37:04.702Z,1.53
2023-03-06T10:39:33.229Z,2.60
2023-03-06T10:42:07.564Z,1.30
2023-03-06T10:44:36.007Z,1.27
2023-03-06T10:47:23.389Z,0.97
2023-03-06T10:49:59.795Z,0.70
2023-03-06T10:52:30.424Z,1.40
2023-03-06T10:55:23.874Z,3.60
2023-03-06T10:57:55.102Z,1.17
2023-03-06T11:00:30.224Z,1.57
2023-03-06T11:03:17.955Z,4.87
2023-03-06T11:06:13.028Z,1.87
2023-03-06T11:08:43.408Z,2.23
2023-03-06T11:11:15.910Z,1.03
2023-03-06T11:13:47.022Z,2.37
2023-03-06T11:16:25.499Z,0.80
2023-03-06T11:18:59.349Z,2.80
2023-03-06T11:21:31.384Z,1.20
2023-03-06T11:24:04.083Z,2.20
2023-03-06T11:26:35.584Z,1.90
2023-03-06T11:29:07.715Z,1.03
2023-03-06T11:31:38.409Z,3.17
2023-03-06T11:34:17.208Z,2.23
2023-03-06T11:36:48.771Z,4.73
2023-03-06T11:39:21.724Z,2.07
2023-03-06T11:41:55.767Z,3.63
2023-03-06T11:44:34.244Z,2.00
2023-03-06T11:47:07.052Z,5.07
2023-03-06T11:49:41.429Z,2.30
2023-03-06T11:52:14.529Z,3.30
2023-03-06T11:54:43.417Z,3.70
2023-03-06T11:57:16.297Z,3.57
2023-03-06T11:59:59.581Z,3.33
2023-03-06T12:02:35.127Z,4.10
2023-03-06T12:05:13.181Z,2.00
2023-03-06T12:07:47.860Z,2.03
2023-03-06T12:10:19.152Z,4.10
2023-03-06T12:12:59.414Z,2.37
2023-03-06T12:15:32.472Z,1.83
2023-03-06T12:18:06.005Z,5.17
2023-03-06T12:20:50.819Z,2.27
2023-03-06T12:23:35.177Z,4.43
2023-03-06T12:26:23.864Z,5.00
2023-03-06T12:29:03.322Z,4.27
2023-03-06T12:31:51.811Z,1.00
2023-03-06T12:34:30.169Z,3.60
2023-03-06T12:37:06.693Z,4.87
2023-03-06T12:39:54.743Z,3.73
2023-03-06T12:42:42.417Z,3.20
2023-03-06T12:45:23.697Z,2.67
2023-03-06T12:47:56.028Z,3.53
2023-03-06T12:50:26.185Z,4.20
2023-03-06T12:52:56.130Z,6.27
2023-03-06T12:55:28.366Z,3.97
2023-03-06T12:58:17.448Z,3.03
2023-03-06T13:01:11.671Z,6.53
2023-03-06T13:03:51.853Z,2.60
2023-03-06T13:06:39.046Z,2.37
2023-03-06T13:09:31.156Z,3.30
2023-03-06T13:12:11.950Z,2.80
2023-03-06T13:15:00.128Z,8.57
2023-03-06T13:17:35.118Z,5.20
2023-03-06T13:20:28.582Z,3.50
2023-03-06T13:22:57.591Z,3.57
2023-03-06T13:25:56.079Z,5.17
2023-03-06T13:28:26.123Z,5.10
2023-03-06T13:30:59.076Z,2.57
2023-03-06T13:33:57.049Z,2.80
2023-03-06T13:36:29.122Z,3.17
2023-03-06T13:39:08.651Z,4.77
2023-03-06T13:41:43.385Z,4.40
2023-03-06T13:44:30.784Z,3.30
2023-03-06T13:47:01.009Z,3.30
2023-03-06T13:49:29.671Z,3.13
2023-03-06T13:52:08.172Z,5.30
2023-03-06T13:54:51.438Z,5.20
2023-03-06T13:57:28.465Z,5.10
2023-03-06T14:00:19.490Z,2.97
2023-03-06T14:03:03.846Z,2.90
2023-03-06T14:05:35.852Z,4.63
2023-03-06T14:08:09.823Z,5.10
2023-03-06T14:10:39.383Z,4.43
2023-03-06T14:13:09.490Z,2.60
2023-03-06T14:15:39.169Z,1.67
2023-03-06T14:18:08.874Z,4.23
2023-03-06T14:20:43.182Z,5.50
2023-03-06T14:23:35.694Z,4.50
2023-03-06T14:26:08.372Z,2.70
2023-03-06T14:28:37.975Z,5.03
2023-03-06T14:31:07.552Z,4.87
2023-03-06T14:33:41.281Z,1.60
2023-03-06T14:36:14.606Z,4.47
2023-03-06T14:38:45.504Z,3.13
2023-03-06T14:41:19.563Z,3.17
2023-03-06T14:43:48.414Z,6.13
2023-03-06T14:46:20.640Z,2.53
2023-03-06T14:48:49.644Z,2.93
2023-03-06T14:51:19.908Z,4.07
2023-03-06T14:53:49.508Z,4.50
2023-03-06T14:56:21.006Z,2.13
2023-03-06T14:58:55.499Z,4.67
2023-03-06T15:01:27.588Z,6.53
2023-03-06T15:04:00.005Z,4.50
2023-03-06T15:06:33.185Z,4.33
2023-03-06T15:09:03.642Z,4.73
2023-03-06T15:11:52.028Z,2.87
2023-03-06T15:14:23.399Z,4.37
2023-03-06T15:16:51.862Z,5.03
2023-03-06T15:19:21.264Z,4.03
2023-03-06T15:21:50.532Z,6.80
2023-03-06T15:24:32.190Z,4.63
2023-03-06T15:27:02.512Z,9.57
2023-03-06T15:29:32.262Z,6.07
2023-03-06T15:32:17.508Z,7.73
2023-03-06T15:34:45.947Z,6.77
2023-03-06T15:37:21.381Z,5.47
2023-03-06T15:40:04.750Z,5.60
2023-03-06T15:42:36.219Z,6.33
2023-03-06T15:45:15.858Z,4.17
2023-03-06T15:47:44.793Z,5.07
2023-03-06T15:50:17.278Z,5.70
2023-03-06T15:52:45.784Z,4.07
2023-03-06T15:55:14.741Z,4.20
2023-03-06T15:57:45.722Z,4.40
2023-03-06T16:00:27.420Z,2.20
2023-03-06T16:02:57.638Z,2.83
2023-03-06T16:05:26.955Z,6.03
2023-03-06T16:07:55.573Z,4.87
2023-03-06T16:10:24.946Z,9.03
2023-03-06T16:12:54.029Z,5.47
2023-03-06T16:15:25.437Z,8.37
2023-03-06T16:17:53.799Z,5.33
2023-03-06T16:20:23.438Z,4.07
2023-03-06T16:22:53.658Z,7.37
2023-03-06T16:25:22.733Z,10.27
2023-03-06T16:27:55.444Z,11.83
2023-03-06T16:30:26.082Z,14.43
2023-03-06T16:32:54.595Z,9.17
2023-03-06T16:35:23.107Z,15.17
2023-03-06T16:37:51.513Z,10.40
2023-03-06T16:40:22.192Z,8.80
2023-03-06T16:42:51.049Z,11.80
2023-03-06T16:45:21.106Z,17.47
2023-03-06T16:47:50.930Z,14.97
2023-03-06T16:50:23.952Z,18.97
2023-03-06T16:52:52.397Z,15.10
2023-03-06T16:55:20.740Z,17.57
2023-03-06T16:57:49.195Z,11.53
2023-03-06T17:00:19.656Z,14.97
2023-03-06T17:02:50.911Z,12.23
2023-03-06T17:05:19.770Z,17.27
2023-03-06T17:07:48.245Z,22.97
2023-03-06T17:10:17.458Z,13.90
2023-03-06T17:12:45.768Z,22.23
2023-03-06T17:15:14.164Z,19.13
2023-03-06T17:17:42.544Z,18.37
2023-03-06T17:20:13.768Z,11.73
2023-03-06T17:22:42.590Z,11.73
2023-03-06T17:25:11.586Z,21.87
2023-03-06T17:27:39.999Z,18.67
2023-03-06T17:30:08.844Z,25.63
2023-03-06T17:32:40.814Z,15.50
2023-03-06T17:35:10.171Z,21.17
2023-03-06T17:37:39.957Z,21.73
2023-03-06T17:40:09.567Z,19.43
2023-03-06T17:42:37.971Z,23.67
2023-03-06T17:45:09.196Z,23.93
2023-03-06T17:47:37.578Z,22.93
2023-03-06T17:50:06.290Z,17.73
2023-03-06T17:52:34.956Z,23.67
2023-03-06T17:55:04.715Z,22.20
2023-03-06T17:57:34.258Z,14.70
2023-03-06T18:00:02.644Z,28.03
2023-03-06T18:02:31.117Z,21.80
2023-03-06T18:04:59.512Z,25.63
2023-03-06T18:07:27.940Z,21.27
2023-03-06T18:09:56.621Z,21.30
2023-03-06T18:12:26.415Z,24.40
2023-03-06T18:14:54.820Z,24.40
2023-03-06T18:17:23.598Z,28.40
2023-03-06T18:19:52.827Z,25.43
2023-03-06T18:22:21.195Z,21.63
2023-03-06T18:24:49.554Z,28.13
2023-03-06T18:27:17.851Z,31.77
2023-03-06T18:29:48.084Z,32.07
2023-03-06T18:32:16.473Z,33.17
2023-03-06T18:34:44.915Z,34.53
2023-03-06T18:37:13.239Z,28.37
2023-03-06T18:39:41.563Z,29.73
2023-03-06T18:42:10.074Z,35.83
2023-03-06T18:44:38.448Z,29.03
2023-03-06T18:47:08.370Z,35.63
2023-03-06T18:49:38.496Z,34.33
2023-03-06T18:52:08.308Z,23.43
2023-03-06T18:54:36.692Z,32.63
2023-03-06T18:57:05.116Z,29.13
2023-03-06T18:59:35.761Z,28.17
2023-03-06T19:02:04.113Z,33.33
2023-03-06T19:04:33.872Z,31.47
2023-03-06T19:07:02.307Z,36.73
2023-03-06T19:09:30.658Z,32.63
2023-03-06T19:11:59.440Z,34.77
2023-03-06T19:14:28.812Z,34.33
2023-03-06T19:16:57.512Z,25.20
2023-03-06T19:19:26.944Z,37.27
2023-03-06T19:21:59.109Z,37.60
2023-03-06T19:24:27.643Z,39.10
2023-03-06T19:26:56.024Z,42.10
2023-03-06T19:29:24.411Z,41.73
2023-03-06T19:31:52.871Z,28.27
2023-03-06T19:34:21.340Z,43.07
2023-03-06T19:36:51.334Z,37.60
2023-03-06T19:39:21.039Z,35.50
2023-03-06T19:41:49.482Z,26.73
2023-03-06T19:44:17.879Z,35.47
2023-03-06T19:46:46.221Z,35.23
2023-03-06T19:49:17.938Z,16.47
2023-03-06T19:51:46.400Z,12.37
2023-03-06T19:54:15.559Z,12.40
2023-03-06T19:56:45.410Z,28.47
2023-03-06T19:59:13.800Z,20.40
2023-03-06T20:01:42.246Z,24.67
2023-03-06T20:04:10.781Z,31.40
2023-03-06T20:06:39.169Z,34.63
2023-03-06T20:09:08.695Z,40.13
2023-03-06T20:11:37.070Z,34.37
2023-03-06T20:14:07.852Z,24.47
2023-03-06T20:16:36.407Z,18.83
2023-03-06T20:19:04.865Z,1.10
2023-03-06T20:21:35.418Z,0.80
2023-03-06T20:24:04.220Z,0.80
2023-03-06T20:26:34.079Z,0.70
2023-03-06T20:29:02.565Z,0.80
2023-03-06T20:31:32.442Z,0.80
2023-03-06T20:34:01.156Z,0.80
2023-03-06T20:36:30.699Z,0.80
2023-03-06T20:39:01.188Z,0.80
2023-03-06T20:41:30.321Z,0.70
2023-03-06T20:43:59.479Z,1.73
2023-03-06T20:46:27.977Z,0.80
2023-03-06T20:48:58.179Z,0.80
2023-03-06T20:51:28.040Z,0.80
2023-03-06T20:53:57.270Z,0.80
2023-03-06T20:56:26.538Z,0.80
2023-03-06T20:58:55.208Z,0.73
2023-03-06T21:01:24.345Z,0.90
2023-03-06T21:03:53.174Z,0.80
2023-03-06T21:06:22.939Z,0.80
2023-03-06T21:08:51.601Z,0.80
2023-03-06T21:11:20.163Z,0.80
2023-03-06T21:13:48.554Z,0.80
2023-03-06T21:16:18.080Z,0.80
2023-03-06T21:18:46.925Z,0.80
2023-03-06T21:21:16.535Z,0.80
2023-03-06T21:23:47.513Z,0.80
2023-03-06T21:26:16.748Z,0.80
2023-03-06T21:28:45.529Z,0.80
2023-03-06T21:31:14.586Z,0.80
2023-03-06T21:33:43.028Z,0.80
2023-03-06T21:36:11.723Z,1.00
2023-03-06T21:38:40.606Z,0.80
2023-03-06T21:41:11.849Z,0.80
2023-03-06T21:43:40.633Z,0.70
2023-03-06T21:46:09.275Z,0.80
2023-03-06T21:48:37.760Z,0.80
2023-03-06T21:51:07.112Z,0.80
2023-03-06T21:53:35.633Z,0.80
2023-03-06T21:56:06.453Z,0.80
2023-03-06T21:58:36.269Z,0.80
2023-03-06T22:01:09.520Z,0.80
2023-03-06T22:03:37.984Z,0.80
2023-03-06T22:06:10.891Z,0.80
2023-03-06T22:08:42.171Z,0.80
2023-03-06T22:11:11.112Z,0.80
2023-03-06T22:13:41.158Z,0.80
2023-03-06T22:16:10.147Z,0.70
2023-03-06T22:18:38.968Z,0.80
2023-03-06T22:21:11.083Z,0.80
2023-03-06T22:23:40.353Z,0.80
2023-03-06T22:26:09.604Z,0.80
2023-03-06T22:28:38.116Z,0.80
2023-03-06T22:31:09.145Z,0.70
2023-03-06T22:33:37.760Z,0.80
2023-03-06T22:36:07.767Z,0.80
2023-03-06T22:38:37.361Z,0.80
2023-03-06T22:41:06.298Z,0.80
2023-03-06T22:43:35.104Z,0.80
2023-03-06T22:46:04.096Z,0.80
2023-03-06T22:48:34.398Z,0.80
2023-03-06T22:51:06.337Z,0.80
2023-03-06T22:53:35.432Z,0.80
2023-03-06T22:56:04.554Z,0.80
2023-03-06T22:58:37.066Z,0.80
2023-03-06T23:01:06.940Z,0.70
2023-03-06T23:03:36.712Z,0.80
2023-03-06T23:06:07.478Z,0.80
2023-03-06T23:08:35.936Z,0.80
2023-03-06T23:11:04.616Z,0.80
2023-03-06T23:13:33.007Z,0.80
2023-03-06T23:16:05.530Z,0.80
2023-03-06T23:18:34.341Z,0.80
2023-03-06T23:21:06.990Z,0.70
2023-03-06T23:23:35.321Z,0.80
2023-03-06T23:26:03.762Z,0.80
2023-03-06T23:28:32.208Z,0.80
2023-03-06T23:31:00.601Z,0.80
2023-03-06T23:33:29.053Z,0.80
2023-03-06T23:35:57.444Z,0.80
2023-03-06T23:38:27.204Z,0.80
2023-03-06T23:40:55.642Z,0.80
2023-03-06T23:43:24.056Z,0.80
2023-03-06T23:45:56.389Z,0.80
2023-03-06T23:48:25.074Z,0.80
2023-03-06T23:50:53.522Z,0.70
2023-03-06T23:53:22.170Z,0.90
2023-03-06T23:55:52.105Z,0.80
2023-03-06T23:58:20.827Z,0.80
